Time;durP1;ratioP1;P1;durP2;ratioP2;P2;SDS_P1;SDS_P2;PMS_P1;PMS_P2;Temp;Humidity;BMP_temperature;BMP_pressure;BME280_temperature;BME280_humidity;BME280_pressure;Samples;Min_cycle;Max_cycle;Signal;HPM_P1;HPM_P2
2023/11/02 00:00:09;;;;;;;0.00;0.00;;;;;;;5.20;100.00;94528.00;1022450;29;20059;-73
2023/11/02 00:00:42;;;;;;;0.15;0.15;;;;;;;5.21;100.00;94529.56;1022449;29;20440;-74
2023/11/02 00:01:13;;;;;;;0.10;0.10;;;;;;;5.23;100.00;94524.09;1018678;29;20781;-74
2023/11/02 00:01:53;;;;;;;0.75;0.57;;;;;;;5.20;100.00;94520.22;1018443;29;20383;-74
2023/11/02 00:02:26;;;;;;;0.10;0.10;;;;;;;5.18;100.00;94523.06;1010649;29;20033;-72
2023/11/02 00:02:57;;;;;;;0.10;0.10;;;;;;;5.17;100.00;94518.13;1016826;29;20372;-73
2023/11/02 00:03:32;;;;;;;1.27;0.45;;;;;;;5.15;100.00;94513.16;1026624;28;20654;-74
2023/11/02 00:04:02;;;;;;;0.32;0.30;;;;;;;5.18;100.00;94524.88;1013680;29;20084;-73
2023/11/02 00:04:33;;;;;;;0.20;0.20;;;;;;;5.16;100.00;94521.75;1022535;29;20262;-74
2023/11/02 00:05:03;;;;;;;0.15;0.13;;;;;;;5.07;100.00;94516.28;1022273;29;20444;-73
2023/11/02 00:05:56;;;;;;;0.20;0.10;;;;;;;5.11;100.00;94522.53;1018562;29;20032;-75
2023/11/02 00:06:38;;;;;;;0.03;0.03;;;;;;;5.08;100.00;94519.66;1015838;29;20420;-73
2023/11/02 00:07:10;;;;;;;0.10;0.10;;;;;;;5.03;100.00;94520.44;1022191;28;20274;-73
2023/11/02 00:07:41;;;;;;;0.20;0.13;;;;;;;5.06;100.00;94524.31;1026347;28;20309;-74
2023/11/02 00:08:11;;;;;;;0.70;0.70;;;;;;;5.06;100.00;94524.31;1018273;29;20358;-73
2023/11/02 00:08:42;;;;;;;0.10;0.10;;;;;;;5.04;100.00;94521.22;1018541;29;20043;-74
2023/11/02 00:09:18;;;;;;;0.00;0.00;;;;;;;5.03;100.00;94517.03;1022453;29;20056;-73
2023/11/02 00:09:50;;;;;;;0.20;0.20;;;;;;;5.00;100.00;94517.56;1022325;29;20067;-74
2023/11/02 00:10:21;;;;;;;0.30;0.30;;;;;;;5.04;100.00;94518.63;1018021;29;20276;-74
2023/11/02 00:10:52;;;;;;;0.30;0.30;;;;;;;5.01;100.00;94519.13;1020861;29;20270;-73
2023/11/02 00:11:44;;;;;;;0.10;0.10;;;;;;;4.96;100.00;94518.09;1018538;29;20665;-73
2023/11/02 00:12:17;;;;;;;0.55;0.52;;;;;;;5.00;100.00;94522.75;1018385;29;20512;-74
2023/11/02 00:12:48;;;;;;;0.38;0.20;;;;;;;4.91;100.00;94507.66;1015465;29;20669;-73
2023/11/02 00:13:28;;;;;;;0.55;0.55;;;;;;;4.94;100.00;94511.59;1018314;29;20283;-74
2023/11/02 00:13:59;;;;;;;0.00;0.00;;;;;;;4.95;100.00;94506.09;1018631;29;20035;-76
2023/11/02 00:14:51;;;;;;;0.20;0.20;;;;;;;4.91;100.00;94510.25;1018730;29;20035;-75
2023/11/02 00:15:22;;;;;;;0.30;0.30;;;;;;;4.92;100.00;94511.03;1018409;29;20031;-75
2023/11/02 00:15:53;;;;;;;0.10;0.10;;;;;;;4.89;100.00;94507.13;1022448;29;20907;-73
2023/11/02 00:16:23;;;;;;;0.10;0.10;;;;;;;4.88;100.00;94512.59;1018719;29;20031;-74
2023/11/02 00:16:55;;;;;;;0.60;0.52;;;;;;;4.88;100.00;94505.59;1026442;28;20373;-74
2023/11/02 00:17:28;;;;;;;0.10;0.10;;;;;;;4.85;100.00;94506.09;1022481;29;20059;-73
2023/11/02 00:17:59;;;;;;;0.10;0.10;;;;;;;4.89;100.00;94509.72;1018576;29;20642;-72
2023/11/02 00:18:31;;;;;;;0.08;0.08;;;;;;;4.85;100.00;94502.72;1022413;28;20302;-74
2023/11/02 00:19:01;;;;;;;0.13;0.13;;;;;;;4.87;100.00;94509.22;1022656;29;20493;-75
2023/11/02 00:19:35;;;;;;;0.00;0.00;;;;;;;4.84;100.00;94509.72;1018481;29;20291;-72
2023/11/02 00:20:07;;;;;;;0.00;0.00;;;;;;;4.84;100.00;94509.72;1022415;29;20031;-74
2023/11/02 00:20:38;;;;;;;0.08;0.08;;;;;;;4.88;100.00;94513.38;1026596;28;20274;-73
2023/11/02 00:21:08;;;;;;;0.10;0.10;;;;;;;4.75;100.00;94487.09;1022205;29;20274;-73
2023/11/02 00:21:39;;;;;;;0.10;0.10;;;;;;;4.85;100.00;94502.72;1022380;28;20082;-72
2023/11/02 00:22:10;;;;;;;1.33;0.63;;;;;;;4.95;100.00;94510.53;1026250;28;20022;-74
2023/11/02 00:22:43;;;;;;;0.75;0.30;;;;;;;5.01;100.00;94513.94;1022264;29;20023;-75
2023/11/02 00:23:13;;;;;;;0.00;0.00;;;;;;;5.06;100.00;94506.13;1026607;28;20770;-75
2023/11/02 00:23:44;;;;;;;0.20;0.20;;;;;;;5.07;100.00;94507.72;1023675;28;20255;-75
2023/11/02 00:24:14;;;;;;;0.00;0.00;;;;;;;5.17;100.00;94507.72;1022505;29;20023;-74
2023/11/02 00:24:47;;;;;;;0.63;0.63;;;;;;;5.23;100.00;94505.88;1022335;29;20057;-75
2023/11/02 00:25:42;;;;;;;0.10;0.10;;;;;;;5.31;100.00;94506.16;1026293;28;20416;-74
2023/11/02 00:26:13;;;;;;;0.43;0.43;;;;;;;5.36;100.00;94507.97;1026547;28;20642;-74
2023/11/02 00:26:43;;;;;;;0.30;0.30;;;;;;;5.36;100.00;94505.38;1022726;28;20341;-74
2023/11/02 00:27:14;;;;;;;0.00;0.00;;;;;;;5.34;100.00;94497.84;1022396;29;20302;-73
2023/11/02 00:27:44;;;;;;;0.00;0.00;;;;;;;5.41;100.00;94500.97;1021798;29;20492;-75
2023/11/02 00:28:15;;;;;;;0.00;0.00;;;;;;;5.45;100.00;94503.81;1026543;28;20046;-74
2023/11/02 00:28:45;;;;;;;0.20;0.20;;;;;;;5.43;100.00;94498.91;1024710;28;20083;-74
2023/11/02 00:29:16;;;;;;;0.10;0.10;;;;;;;5.54;100.00;94504.09;1026563;28;20069;-74
2023/11/02 00:29:47;;;;;;;0.00;0.00;;;;;;;5.52;100.00;94503.56;1021449;29;20023;-73
2023/11/02 00:30:17;;;;;;;0.20;0.20;;;;;;;5.53;100.00;94500.69;1025602;28;20516;-74
2023/11/02 00:30:50;;;;;;;0.38;0.17;;;;;;;5.58;100.00;94505.13;1027296;28;20029;-73
2023/11/02 00:31:21;;;;;;;0.10;0.10;;;;;;;5.62;100.00;94501.72;1022377;29;20035;-74
2023/11/02 00:31:52;;;;;;;0.35;0.30;;;;;;;5.63;100.00;94500.72;1024721;28;20290;-73
2023/11/02 00:32:22;;;;;;;0.00;0.00;;;;;;;5.63;100.00;94499.91;1018492;29;20030;-73
2023/11/02 00:32:54;;;;;;;0.10;0.10;;;;;;;5.63;100.00;94495.50;1020016;28;20031;-75
2023/11/02 00:33:24;;;;;;;0.03;0.03;;;;;;;5.60;100.00;94484.81;1022422;29;20114;-73
2023/11/02 00:33:55;;;;;;;0.00;0.00;;;;;;;5.62;100.00;94490.53;1030293;28;20304;-75
2023/11/02 00:34:26;;;;;;;0.30;0.30;;;;;;;5.62;100.00;94486.13;1022451;29;20019;-74
2023/11/02 00:34:57;;;;;;;0.63;0.57;;;;;;;5.64;100.00;94491.06;1016787;29;20420;-75
2023/11/02 00:35:27;;;;;;;0.20;0.20;;;;;;;5.62;100.00;94487.94;1018396;29;20275;-72
2023/11/02 00:35:58;;;;;;;0.00;0.00;;;;;;;5.61;100.00;94481.19;1022308;29;20024;-74
2023/11/02 00:36:30;;;;;;;0.20;0.20;;;;;;;5.56;100.00;94475.97;1026723;28;20050;-74
2023/11/02 00:37:01;;;;;;;0.90;0.63;;;;;;;5.62;100.00;94483.50;1015601;29;20083;-74
2023/11/02 00:37:31;;;;;;;0.30;0.15;;;;;;;5.64;100.00;94480.66;1014824;29;20276;-74
2023/11/02 00:38:02;;;;;;;0.75;0.57;;;;;;;5.65;100.00;94482.22;1022296;29;20031;-73
2023/11/02 00:38:32;;;;;;;0.25;0.25;;;;;;;5.55;100.00;94472.59;1018854;29;20427;-74
2023/11/02 00:39:03;;;;;;;0.00;0.00;;;;;;;5.58;100.00;94479.09;1022453;29;20059;-73
2023/11/02 00:39:34;;;;;;;0.00;0.00;;;;;;;5.58;100.00;94479.09;1022572;29;20038;-73
2023/11/02 00:40:05;;;;;;;0.00;0.00;;;;;;;5.64;100.00;94481.44;1022092;29;20024;-75
2023/11/02 00:40:36;;;;;;;0.25;0.25;;;;;;;5.62;100.00;94490.53;1025837;28;20019;-73
2023/11/02 00:41:06;;;;;;;0.25;0.25;;;;;;;5.69;100.00;94485.84;1021858;29;20267;-75
2023/11/02 00:41:37;;;;;;;0.00;0.00;;;;;;;5.75;100.00;94481.44;1018388;29;20064;-73
2023/11/02 00:42:07;;;;;;;0.05;0.05;;;;;;;5.77;100.00;94484.53;1026270;28;20549;-75
2023/11/02 00:42:38;;;;;;;0.10;0.10;;;;;;;5.83;100.00;94492.06;1026549;28;20050;-74
2023/11/02 00:43:08;;;;;;;0.45;0.45;;;;;;;5.77;100.00;94466.31;1018393;29;20124;-73
2023/11/02 00:43:39;;;;;;;0.10;0.10;;;;;;;5.86;100.00;94488.94;1026378;28;20459;-75
2023/11/02 00:44:09;;;;;;;0.22;0.08;;;;;;;5.86;100.00;94478.53;1030334;28;20022;-74
2023/11/02 00:44:40;;;;;;;2.17;1.02;;;;;;;5.87;100.00;94484.53;1030330;28;20065;-74
2023/11/02 00:45:11;;;;;;;0.30;0.30;;;;;;;5.87;100.00;94479.34;1022403;29;20115;-74
2023/11/02 00:45:41;;;;;;;0.32;0.30;;;;;;;5.86;100.00;94473.31;1022228;29;20126;-73
2023/11/02 00:46:12;;;;;;;0.28;0.28;;;;;;;5.82;100.00;94469.69;1026398;28;20034;-75
2023/11/02 00:46:43;;;;;;;0.10;0.10;;;;;;;5.83;100.00;94468.66;1026204;28;20577;-73
2023/11/02 00:47:17;;;;;;;0.10;0.10;;;;;;;5.81;100.00;94468.16;1022871;28;20027;-75
2023/11/02 00:47:49;;;;;;;0.20;0.20;;;;;;;5.78;100.00;94463.47;1022407;29;20286;-73
2023/11/02 00:48:20;;;;;;;0.00;0.00;;;;;;;5.77;100.00;94463.72;1014609;29;20286;-74
2023/11/02 00:48:51;;;;;;;0.00;0.00;;;;;;;5.75;100.00;94465.81;1022291;29;20257;-75
2023/11/02 00:49:22;;;;;;;0.22;0.22;;;;;;;5.75;100.00;94464.00;1014309;29;20283;-73
2023/11/02 00:49:53;;;;;;;0.10;0.10;;;;;;;5.74;100.00;94470.25;1022196;28;20595;-73
2023/11/02 00:50:51;;;;;;;1.35;0.70;;;;;;;5.74;100.00;94466.88;1021648;29;20663;-72
2023/11/02 00:51:25;;;;;;;0.55;0.55;;;;;;;5.71;100.00;94470.00;1018478;29;20811;-74
2023/11/02 00:51:57;;;;;;;0.00;0.00;;;;;;;5.71;100.00;94464.78;1022153;29;20638;-72
2023/11/02 00:52:28;;;;;;;0.30;0.30;;;;;;;5.72;100.00;94461.91;1018136;29;20786;-75
2023/11/02 00:52:59;;;;;;;0.55;0.55;;;;;;;5.72;100.00;94464.50;1018295;29;20267;-73
2023/11/02 00:53:29;;;;;;;0.43;0.43;;;;;;;5.72;100.00;94453.31;1010704;29;20033;-73
2023/11/02 00:54:01;;;;;;;1.77;1.13;;;;;;;5.63;100.00;94453.88;1013099;29;20021;-73
2023/11/02 00:54:58;;;;;;;0.20;0.20;;;;;;;5.64;100.00;94445.00;1022418;29;20440;-75
2023/11/02 00:55:37;;;;;;;0.10;0.10;;;;;;;5.66;100.00;94453.31;1013045;29;20272;-74
2023/11/02 00:56:08;;;;;;;0.43;0.43;;;;;;;5.64;100.00;94449.44;1025316;28;20330;-73
2023/11/02 00:56:39;;;;;;;0.32;0.32;;;;;;;5.64;100.00;94449.44;1026371;28;20273;-74
2023/11/02 00:57:15;;;;;;;0.00;0.00;;;;;;;5.65;100.00;94448.38;1022257;29;20297;-72
2023/11/02 00:57:45;;;;;;;0.30;0.30;;;;;;;5.64;100.00;94452.03;1018154;29;20020;-73
2023/11/02 00:58:16;;;;;;;1.38;0.85;;;;;;;5.61;100.00;94453.34;1018347;29;20366;-74
2023/11/02 00:58:49;;;;;;;0.30;0.30;;;;;;;5.60;100.00;94443.97;1021530;29;20064;-72
2023/11/02 00:59:19;;;;;;;0.10;0.10;;;;;;;5.57;100.00;94449.72;1022463;29;20031;-73
2023/11/02 00:59:51;;;;;;;0.45;0.45;;;;;;;5.58;100.00;94440.06;1022157;29;20266;-74
2023/11/02 01:01:02;;;;;;;0.17;0.17;;;;;;;5.55;100.00;94436.19;1021887;29;20459;-74
2023/11/02 01:01:33;;;;;;;;;;;;;;;5.53;100.00;94432.28;1015931;29;20691;-72
2023/11/02 01:02:05;;;;;;;0.93;0.47;;;;;;;5.47;100.00;94428.13;1025978;28;19922;-74
2023/11/02 01:02:36;;;;;;;0.00;0.00;;;;;;;5.48;100.00;94427.09;1011604;29;20021;-74
2023/11/02 01:03:06;;;;;;;0.00;0.00;;;;;;;5.47;100.00;94422.94;1013773;29;20763;-74
2023/11/02 01:03:37;;;;;;;2.33;1.17;;;;;;;5.46;100.00;94427.34;1016590;29;20047;-73
2023/11/02 01:04:42;;;;;;;0.45;0.45;;;;;;;5.42;100.00;94416.69;1013714;29;20484;-74
2023/11/02 01:05:21;;;;;;;0.57;0.20;;;;;;;5.39;100.00;94414.59;1022341;29;20094;-73
2023/11/02 01:05:52;;;;;;;0.05;0.05;;;;;;;5.39;100.00;94419.81;1024133;28;20258;-72
2023/11/02 01:06:29;;;;;;;0.20;0.20;;;;;;;5.37;100.00;94408.13;1018356;29;20852;-74
2023/11/02 01:07:00;;;;;;;0.10;0.10;;;;;;;5.35;100.00;94416.16;1022234;29;20415;-74
2023/11/02 01:07:33;;;;;;;0.00;0.00;;;;;;;5.30;100.00;94403.19;1018376;29;20395;-75
2023/11/02 01:08:04;;;;;;;0.15;0.15;;;;;;;5.33;100.00;94415.66;1022392;29;20031;-73
2023/11/02 01:08:34;;;;;;;0.10;0.10;;;;;;;5.32;100.00;94414.09;1014551;29;20355;-75
2023/11/02 01:09:16;;;;;;;0.03;0.03;;;;;;;5.34;100.00;94414.63;1021543;29;20759;-74
2023/11/02 01:09:47;;;;;;;0.15;0.15;;;;;;;5.31;100.00;94409.94;1025831;28;20027;-74
2023/11/02 01:10:17;;;;;;;0.00;0.00;;;;;;;5.29;100.00;94406.81;1027397;28;20285;-73
2023/11/02 01:10:48;;;;;;;0.00;0.00;;;;;;;5.25;100.00;94399.81;1023817;28;20030;-75
2023/11/02 01:11:18;;;;;;;0.00;0.00;;;;;;;5.28;100.00;94405.25;1018540;29;20027;-74
2023/11/02 01:11:49;;;;;;;0.00;0.00;;;;;;;5.28;100.00;94405.25;1026102;28;20464;-73
2023/11/02 01:12:36;;;;;;;0.00;0.00;;;;;;;5.25;100.00;94400.56;1018485;29;20031;-73
2023/11/02 01:13:12;;;;;;;0.15;0.15;;;;;;;5.23;100.00;94392.28;1022233;29;20082;-74
2023/11/02 01:13:43;;;;;;;0.00;0.00;;;;;;;5.23;100.00;94407.88;1022588;28;20263;-73
2023/11/02 01:14:22;;;;;;;0.52;0.52;;;;;;;5.24;100.00;94398.25;1030287;28;20626;-74
2023/11/02 01:14:53;;;;;;;0.00;0.00;;;;;;;5.01;100.00;94370.97;1018307;29;20554;-73
2023/11/02 01:15:51;;;;;;;0.10;0.10;;;;;;;5.21;100.00;94399.53;1022372;28;20782;-73
2023/11/02 01:16:21;;;;;;;0.55;0.55;;;;;;;5.12;100.00;94380.31;1022488;29;20103;-74
2023/11/02 01:16:52;;;;;;;0.10;0.10;;;;;;;4.96;100.00;94367.34;1018290;29;20315;-74
2023/11/02 01:17:32;;;;;;;0.00;0.00;;;;;;;5.20;100.00;94398.00;1022374;29;20639;-74
2023/11/02 01:18:04;;;;;;;0.00;0.00;;;;;;;5.18;100.00;94392.25;1026257;28;20027;-73
2023/11/02 01:18:34;;;;;;;0.47;0.20;;;;;;;5.17;100.00;94393.31;1024653;28;20035;-73
2023/11/02 01:19:05;;;;;;;0.70;0.20;;;;;;;5.16;100.00;94389.13;1026173;28;20285;-73
2023/11/02 01:19:51;;;;;;;0.10;0.10;;;;;;;5.16;100.00;94387.34;1030219;28;20030;-72
2023/11/02 01:20:42;;;;;;;0.20;0.20;;;;;;;5.13;100.00;94387.84;1028017;28;20281;-73
2023/11/02 01:21:14;;;;;;;0.20;0.20;;;;;;;5.14;100.00;94380.84;1030071;28;20284;-74
2023/11/02 01:21:45;;;;;;;0.00;0.00;;;;;;;5.13;100.00;94376.66;1018781;29;20633;-72
2023/11/02 01:22:24;;;;;;;0.00;0.00;;;;;;;5.12;100.00;94381.06;1014417;29;20280;-73
2023/11/02 01:23:05;;;;;;;0.03;0.03;;;;;;;5.10;100.00;94372.00;1020321;29;20035;-74
2023/11/02 01:23:36;;;;;;;0.00;0.00;;;;;;;5.11;100.00;94378.75;1016227;29;20794;-74
2023/11/02 01:24:07;;;;;;;0.57;0.57;;;;;;;5.09;100.00;94376.41;1013708;29;20319;-73
2023/11/02 01:24:39;;;;;;;0.00;0.00;;;;;;;5.09;100.00;94376.41;1018271;29;20437;-73
2023/11/02 01:25:13;;;;;;;0.60;0.30;;;;;;;5.08;100.00;94380.06;1018121;29;20282;-74
2023/11/02 01:25:45;;;;;;;0.00;0.00;;;;;;;5.04;100.00;94355.63;1021368;29;20328;-73
2023/11/02 01:26:48;;;;;;;0.00;0.00;;;;;;;5.11;100.00;94371.72;1018112;29;20564;-72
2023/11/02 01:27:22;;;;;;;0.00;0.00;;;;;;;5.10;100.00;94374.59;1022453;29;20278;-74
2023/11/02 01:28:03;;;;;;;0.05;0.05;;;;;;;5.07;100.00;94362.91;1016765;29;20364;-74
2023/11/02 01:28:52;;;;;;;0.10;0.10;;;;;;;5.07;100.00;94359.53;1022464;29;20275;-74
2023/11/02 01:29:22;;;;;;;0.00;0.00;;;;;;;5.05;100.00;94359.00;1028691;28;20488;-74
2023/11/02 01:29:53;;;;;;;0.00;0.00;;;;;;;5.00;100.00;94351.19;1022224;29;20267;-74
2023/11/02 01:30:23;;;;;;;0.38;0.38;;;;;;;5.05;100.00;94361.59;1025634;28;20023;-75
2023/11/02 01:31:13;;;;;;;0.10;0.10;;;;;;;5.03;100.00;94350.66;1021265;29;20023;-74
2023/11/02 01:31:44;;;;;;;0.00;0.00;;;;;;;5.02;100.00;94349.91;1014904;29;20388;-72
2023/11/02 01:32:14;;;;;;;0.00;0.00;;;;;;;5.01;100.00;94347.56;1022332;28;20275;-73
2023/11/02 01:32:48;;;;;;;0.00;0.00;;;;;;;5.03;100.00;94348.88;1030176;28;20025;-72
2023/11/02 01:33:33;;;;;;;0.00;0.00;;;;;;;5.01;100.00;94339.78;1026473;28;20023;-74
2023/11/02 01:34:03;;;;;;;0.03;0.03;;;;;;;4.99;100.00;94340.00;1018528;29;20256;-73
2023/11/02 01:34:34;;;;;;;0.38;0.38;;;;;;;4.91;100.00;94330.16;1018084;29;20363;-72
2023/11/02 01:35:11;;;;;;;0.20;0.20;;;;;;;4.99;100.00;94339.25;1025546;28;20023;-75
2023/11/02 01:35:43;;;;;;;0.00;0.00;;;;;;;4.92;100.00;94324.69;1032988;28;20269;-73
2023/11/02 01:36:14;;;;;;;0.82;0.20;;;;;;;4.94;100.00;94327.81;1017098;29;20693;-76
2023/11/02 01:36:44;;;;;;;0.00;0.00;;;;;;;4.94;100.00;94330.41;1033614;28;20300;-74
2023/11/02 01:37:15;;;;;;;1.25;0.40;;;;;;;4.94;100.00;94327.81;1028559;28;20067;-72
2023/11/02 01:37:45;;;;;;;0.35;0.35;;;;;;;4.89;100.00;94320.00;1021823;29;20062;-74
2023/11/02 01:38:16;;;;;;;0.10;0.10;;;;;;;4.91;100.00;94328.34;1018314;29;20036;-74
2023/11/02 01:38:46;;;;;;;0.00;0.00;;;;;;;4.89;100.00;94322.59;1018441;29;20135;-74
2023/11/02 01:39:17;;;;;;;0.00;0.00;;;;;;;4.90;100.00;94331.22;1022502;29;20142;-74
2023/11/02 01:40:08;;;;;;;0.10;0.10;;;;;;;4.87;100.00;94322.09;1014211;29;20016;-73
2023/11/02 01:40:49;;;;;;;6.20;3.65;;;;;;;4.87;100.00;94327.31;1018283;29;20023;-75
2023/11/02 01:41:25;;;;;;;0.10;0.10;;;;;;;4.77;100.00;94316.91;1021319;28;20304;-74
2023/11/02 01:42:06;;;;;;;0.00;0.00;;;;;;;4.83;100.00;94323.69;1019679;29;20582;-74
2023/11/02 01:42:42;;;;;;;0.15;0.15;;;;;;;4.78;100.00;94317.69;1022172;29;20283;-74
2023/11/02 01:43:15;;;;;;;0.20;0.20;;;;;;;4.75;100.00;94321.59;1019250;29;20263;-74
2023/11/02 01:43:50;;;;;;;0.00;0.00;;;;;;;4.77;100.00;94319.53;1018249;29;20281;-73
2023/11/02 01:44:30;;;;;;;0.28;0.28;;;;;;;4.75;100.00;94321.59;1020935;28;20274;-73
2023/11/02 01:45:11;;;;;;;0.00;0.00;;;;;;;4.71;100.00;94317.97;1026093;28;20281;-73
2023/11/02 01:45:41;;;;;;;0.08;0.08;;;;;;;4.70;100.00;94311.22;1023086;28;20282;-74
2023/11/02 01:46:28;;;;;;;0.57;0.52;;;;;;;4.66;100.00;94307.56;1019205;29;20307;-74
2023/11/02 01:47:09;;;;;;;0.00;0.00;;;;;;;4.68;100.00;94308.09;1021295;29;20118;-74
2023/11/02 01:47:49;;;;;;;0.03;0.03;;;;;;;4.66;100.00;94317.94;1023074;29;20939;-74
2023/11/02 01:48:22;;;;;;;0.00;0.00;;;;;;;4.61;100.00;94313.53;1030549;28;20277;-74
2023/11/02 01:49:04;;;;;;;0.10;0.10;;;;;;;4.62;100.00;94315.09;1024439;28;20037;-74
2023/11/02 01:49:43;;;;;;;0.17;0.17;;;;;;;4.61;100.00;94312.75;1027242;28;20270;-74
2023/11/02 01:50:21;;;;;;;0.22;0.22;;;;;;;4.62;100.00;94316.91;1029947;28;20276;-75
2023/11/02 01:51:09;;;;;;;0.38;0.38;;;;;;;4.57;100.00;94303.94;1033294;28;21137;-74
2023/11/02 01:51:52;;;;;;;0.55;0.32;;;;;;;4.58;100.00;94308.09;1024863;28;20353;-74
2023/11/02 01:52:34;;;;;;;0.03;0.03;;;;;;;4.58;100.00;94305.50;1019754;29;20363;-74
2023/11/02 01:53:15;;;;;;;0.00;0.00;;;;;;;4.57;100.00;94307.31;1022103;29;20807;-74
2023/11/02 01:54:14;;;;;;;0.00;0.00;;;;;;;4.59;100.00;94300.03;1019550;29;20270;-75
2023/11/02 01:55:00;;;;;;;0.00;0.00;;;;;;;4.42;100.00;94279.50;1026867;28;20269;-73
2023/11/02 01:55:58;;;;;;;0.00;0.00;;;;;;;4.56;100.00;94304.97;1023012;29;20291;-74
2023/11/02 01:56:43;;;;;;;0.00;0.00;;;;;;;4.53;100.00;94298.47;1024763;28;20302;-75
2023/11/02 01:57:45;;;;;;;0.38;0.38;;;;;;;4.51;100.00;94294.59;1025313;28;20277;-74
2023/11/02 01:58:27;;;;;;;0.08;0.08;;;;;;;4.46;100.00;94290.94;1027972;28;20789;-75
2023/11/02 01:59:03;;;;;;;0.00;0.00;;;;;;;4.39;100.00;94280.03;1034492;28;20967;-75
2023/11/02 01:59:41;;;;;;;0.00;0.00;;;;;;;4.43;100.00;94288.88;1030783;28;20648;-74
2023/11/02 02:00:15;;;;;;;0.63;0.63;;;;;;;4.43;100.00;94288.09;1018535;29;20272;-72
2023/11/02 02:01:04;;;;;;;0.00;0.00;;;;;;;4.40;100.00;94281.59;1015167;29;20264;-74
2023/11/02 02:01:36;;;;;;;0.10;0.10;;;;;;;4.40;100.00;94289.38;1019561;29;20240;-74
2023/11/02 02:02:14;;;;;;;0.10;0.10;;;;;;;4.31;100.00;94271.97;1026058;28;20274;-72
2023/11/02 02:02:47;;;;;;;0.00;0.00;;;;;;;4.37;100.00;94281.34;1022166;29;20271;-73
2023/11/02 02:04:05;;;;;;;0.20;0.20;;;;;;;4.38;100.00;94275.09;1018975;29;20786;-75
2023/11/02 02:04:35;;;;;;;0.00;0.00;;;;;;;4.34;100.00;94274.84;1000740;29;20282;-74
2023/11/02 02:05:15;;;;;;;0.10;0.10;;;;;;;4.35;100.00;94263.41;1018588;28;20511;-73
2023/11/02 02:05:51;;;;;;;0.00;0.00;;;;;;;4.34;100.00;94261.84;1030943;28;20030;-72
2023/11/02 02:06:26;;;;;;;0.40;0.40;;;;;;;4.33;100.00;94262.91;1027074;28;20054;-73
2023/11/02 02:07:05;;;;;;;0.00;0.00;;;;;;;4.32;100.00;94258.72;1026964;28;20281;-73
2023/11/02 02:08:06;;;;;;;0.57;0.57;;;;;;;4.32;100.00;94257.94;1026983;28;20322;-73
2023/11/02 02:08:36;;;;;;;0.00;0.00;;;;;;;4.31;100.00;94262.38;1028070;28;20258;-74
2023/11/02 02:09:32;;;;;;;0.00;0.00;;;;;;;4.34;100.00;94267.03;1027551;28;20570;-74
2023/11/02 02:10:22;;;;;;;0.22;0.22;;;;;;;4.34;100.00;94272.25;1032344;28;20030;-74
2023/11/02 02:10:58;;;;;;;0.85;0.70;;;;;;;4.34;100.00;94266.28;1034409;28;20794;-74
2023/11/02 02:11:51;;;;;;;0.20;0.20;;;;;;;4.36;100.00;94270.19;1030930;28;20273;-73
2023/11/02 02:12:50;;;;;;;0.73;0.73;;;;;;;4.34;100.00;94261.84;1030774;28;20359;-74
2023/11/02 02:13:50;;;;;;;0.05;0.05;;;;;;;4.32;100.00;94263.91;1019067;29;20643;-73
2023/11/02 02:14:59;;;;;;;0.10;0.10;;;;;;;4.34;100.00;94261.84;1018656;29;20307;-73
2023/11/02 02:15:55;;;;;;;0.10;0.10;;;;;;;4.28;100.00;94251.72;1016102;29;20850;-74
2023/11/02 02:16:46;;;;;;;0.17;0.17;;;;;;;4.25;100.00;94258.97;1029166;28;20284;-72
2023/11/02 02:17:30;;;;;;;0.15;0.15;;;;;;;4.31;100.00;94262.38;1028129;28;20270;-72
2023/11/02 02:18:14;;;;;;;0.13;0.13;;;;;;;4.34;100.00;94269.66;1019152;29;20267;-74
2023/11/02 02:18:59;;;;;;;0.13;0.13;;;;;;;4.33;100.00;94264.72;1018738;29;20267;-74
2023/11/02 02:19:42;;;;;;;0.30;0.30;;;;;;;4.37;100.00;94276.91;1023192;28;20354;-74
2023/11/02 02:20:12;;;;;;;0.00;0.00;;;;;;;4.37;100.00;94271.72;1020445;28;20362;-73
2023/11/02 02:20:46;;;;;;;0.40;0.40;;;;;;;4.38;100.00;94270.69;1022850;29;20267;-72
2023/11/02 02:21:41;;;;;;;0.00;0.00;;;;;;;4.38;100.00;94268.09;1018880;29;20038;-75
2023/11/02 02:22:15;;;;;;;0.10;0.10;;;;;;;4.34;100.00;94261.06;1025235;28;20289;-72
2023/11/02 02:23:08;;;;;;;0.00;0.00;;;;;;;4.35;100.00;94268.59;1027664;28;20777;-73
2023/11/02 02:24:34;;;;;;;0.00;0.00;;;;;;;4.36;100.00;94264.97;1033462;28;20786;-74
2023/11/02 02:25:30;;;;;;;0.60;0.52;;;;;;;4.40;100.00;94255.63;1022787;29;20298;-73
2023/11/02 02:26:14;;;;;;;0.00;0.00;;;;;;;4.39;100.00;94259.28;1015096;29;20676;-73
2023/11/02 02:27:11;;;;;;;0.00;0.00;;;;;;;4.41;100.00;94259.00;1015788;28;20687;-72
2023/11/02 02:28:09;;;;;;;0.10;0.10;;;;;;;4.39;100.00;94261.06;1028565;28;20573;-73
2023/11/02 02:29:06;;;;;;;0.22;0.22;;;;;;;4.38;100.00;94257.69;1034326;28;20260;-73
2023/11/02 02:29:51;;;;;;;0.08;0.08;;;;;;;4.40;100.00;94257.44;1031521;28;20792;-74
2023/11/02 02:30:41;;;;;;;0.03;0.03;;;;;;;4.39;100.00;94258.47;1028375;28;20851;-74
2023/11/02 02:31:27;;;;;;;0.10;0.10;;;;;;;4.32;100.00;94243.16;1027246;28;20637;-74
2023/11/02 02:32:03;;;;;;;0.22;0.22;;;;;;;4.38;100.00;94255.09;1023523;28;20655;-75
2023/11/02 02:33:15;;;;;;;0.30;0.30;;;;;;;4.35;100.00;94250.41;1027211;28;20290;-75
2023/11/02 02:33:52;;;;;;;0.00;0.00;;;;;;;4.34;100.00;94250.69;1034445;28;20316;-74
2023/11/02 02:34:40;;;;;;;0.57;0.52;;;;;;;4.31;100.00;94251.97;1031251;28;20292;-74
2023/11/02 02:35:29;;;;;;;0.00;0.00;;;;;;;4.27;100.00;94248.34;1031246;28;20261;-74
2023/11/02 02:36:13;;;;;;;0.00;0.00;;;;;;;4.29;100.00;94250.69;1028524;28;20266;-74
2023/11/02 02:37:22;;;;;;;0.00;0.00;;;;;;;4.27;100.00;94248.34;1027420;28;20309;-73
2023/11/02 02:37:54;;;;;;;0.00;0.00;;;;;;;4.23;100.00;94242.91;1009399;29;20333;-74
2023/11/02 02:38:39;;;;;;;0.10;0.03;;;;;;;4.17;100.00;94240.56;1012642;29;20351;-74
2023/11/02 02:39:09;;;;;;;1.55;0.75;;;;;;;4.26;100.00;94244.22;1024609;28;20274;-72
2023/11/02 02:39:40;;;;;;;0.00;0.00;;;;;;;4.19;100.00;94235.88;1027176;28;20947;-73
2023/11/02 02:40:14;;;;;;;0.15;0.15;;;;;;;4.26;100.00;94246.81;1022738;29;20030;-74
2023/11/02 02:40:56;;;;;;;0.00;0.00;;;;;;;4.23;100.00;94239.53;1020460;29;20023;-73
2023/11/02 02:41:29;;;;;;;0.00;0.00;;;;;;;4.24;100.00;94241.84;1023105;29;20269;-73
2023/11/02 02:42:00;;;;;;;0.00;0.00;;;;;;;4.25;100.00;94237.44;1025669;28;20283;-74
2023/11/02 02:42:33;;;;;;;0.40;0.40;;;;;;;4.21;100.00;94241.59;1019657;29;20663;-74
2023/11/02 02:43:04;;;;;;;0.00;0.00;;;;;;;4.25;100.00;94242.63;1030123;28;20034;-74
2023/11/02 02:43:35;;;;;;;0.43;0.43;;;;;;;4.23;100.00;94236.94;1027160;28;20317;-75
2023/11/02 02:44:07;;;;;;;0.10;0.10;;;;;;;4.21;100.00;94236.41;1021568;28;20396;-75
2023/11/02 02:44:38;;;;;;;0.00;0.00;;;;;;;4.23;100.00;94234.34;1024492;28;20593;-72
2023/11/02 02:45:09;;;;;;;0.20;0.20;;;;;;;4.29;100.00;94241.06;1030667;28;20265;-74
2023/11/02 02:45:39;;;;;;;0.43;0.43;;;;;;;4.25;100.00;94238.22;1027215;28;20122;-73
2023/11/02 02:46:10;;;;;;;0.00;0.00;;;;;;;4.23;100.00;94234.34;1030493;28;20273;-73
2023/11/02 02:46:40;;;;;;;0.00;0.00;;;;;;;4.22;100.00;94232.75;1027322;28;20031;-74
2023/11/02 02:47:12;;;;;;;0.57;0.57;;;;;;;4.28;100.00;94236.94;1023156;28;20038;-75
2023/11/02 02:47:42;;;;;;;0.10;0.10;;;;;;;4.31;100.00;94240.81;1019200;29;20511;-74
2023/11/02 02:48:12;;;;;;;0.30;0.30;;;;;;;4.31;100.00;94241.59;1019447;29;20294;-74
2023/11/02 02:48:43;;;;;;;0.75;0.63;;;;;;;4.30;100.00;94240.06;1019368;29;20543;-74
2023/11/02 02:49:14;;;;;;;0.10;0.10;;;;;;;4.31;100.00;94238.22;1026015;28;20577;-74
2023/11/02 02:49:49;;;;;;;0.20;0.20;;;;;;;4.26;100.00;94228.63;1015277;29;20020;-75
2023/11/02 02:50:20;;;;;;;0.63;0.20;;;;;;;4.32;100.00;94237.97;1015793;29;20032;-73
2023/11/02 02:50:55;;;;;;;0.20;0.20;;;;;;;4.32;100.00;94235.34;1021610;28;20906;-73
2023/11/02 02:51:25;;;;;;;0.20;0.20;;;;;;;4.29;100.00;94235.88;1023153;29;20024;-73
2023/11/02 02:51:56;;;;;;;0.20;0.20;;;;;;;4.24;100.00;94233.28;1025261;28;20263;-75
2023/11/02 02:52:26;;;;;;;0.00;0.00;;;;;;;4.30;100.00;94239.28;1024508;28;20038;-75
2023/11/02 02:52:58;;;;;;;0.08;0.08;;;;;;;4.26;100.00;94231.22;1023207;29;20432;-73
2023/11/02 02:53:31;;;;;;;0.00;0.00;;;;;;;4.28;100.00;94231.72;1023260;29;20110;-75
2023/11/02 02:54:08;;;;;;;0.32;0.32;;;;;;;4.26;100.00;94233.81;1030352;28;20281;-73